Time;durP1;ratioP1;P1;durP2;ratioP2;P2;SDS_P1;SDS_P2;PMS_P1;PMS_P2;Temp;Humidity;BMP_temperature;BMP_pressure;BME280_temperature;BME280_humidity;BME280_pressure;Samples;Min_cycle;Max_cycle;Signal;HPM_P1;HPM_P2
2022/10/31 00:02:11;;;;;;;79.63;24.33;;;;;;;;;;6269610;22;20016;-54
2022/10/31 00:04:38;;;;;;;66.35;22.67;;;;;;;;;;6269381;22;20077;-59
2022/10/31 00:07:06;;;;;;;93.78;27.42;;;;;;;;;;6268729;22;20110;-59
2022/10/31 00:09:39;;;;;;;88.82;27.48;;;;;;;;;;6268025;22;20015;-59
2022/10/31 00:12:13;;;;;;;99.55;27.92;;;;;;;;;;6269693;22;20030;-59
2022/10/31 00:14:47;;;;;;;96.07;26.50;;;;;;;;;;6268588;22;20110;-60
2022/10/31 00:17:28;;;;;;;108.65;30.02;;;;;;;;;;6268590;22;20034;-59
2022/10/31 00:20:05;;;;;;;100.10;30.58;;;;;;;;;;6270791;22;20440;-60
2022/10/31 00:22:38;;;;;;;114.23;32.50;;;;;;;;;;6272180;22;20098;-56
2022/10/31 00:25:05;;;;;;;119.97;34.00;;;;;;;;;;6243969;22;20016;-58
2022/10/31 00:27:33;;;;;;;126.47;34.17;;;;;;;;;;6272341;22;20019;-59
2022/10/31 00:30:07;;;;;;;146.15;36.85;;;;;;;;;;6271568;22;20026;-58
2022/10/31 00:32:34;;;;;;;130.80;37.35;;;;;;;;;;6270594;22;20465;-58
2022/10/31 00:35:08;;;;;;;124.47;37.63;;;;;;;;;;6271635;22;20110;-58
2022/10/31 00:37:35;;;;;;;159.35;39.45;;;;;;;;;;6271875;22;20112;-58
2022/10/31 00:40:02;;;;;;;162.35;40.58;;;;;;;;;;6269461;22;20030;-60
2022/10/31 00:42:35;;;;;;;138.05;39.15;;;;;;;;;;6272111;22;20024;-53
2022/10/31 00:45:02;;;;;;;187.75;42.03;;;;;;;;;;6271293;22;20019;-49
2022/10/31 00:47:37;;;;;;;153.18;40.67;;;;;;;;;;6271824;22;20062;-51
2022/10/31 00:50:05;;;;;;;151.68;39.85;;;;;;;;;;6269981;22;20016;-50
2022/10/31 00:52:32;;;;;;;171.48;43.20;;;;;;;;;;6271905;22;20024;-49
2022/10/31 00:55:05;;;;;;;148.95;42.53;;;;;;;;;;6269905;22;20510;-50
2022/10/31 00:57:32;;;;;;;130.45;40.83;;;;;;;;;;6270594;22;20030;-53
2022/10/31 01:00:07;;;;;;;164.90;45.97;;;;;;;;;;6270677;22;20023;-59
2022/10/31 01:02:34;;;;;;;168.57;44.50;;;;;;;;;;6270292;22;20442;-59
2022/10/31 01:05:01;;;;;;;137.73;38.95;;;;;;;;;;6270083;22;20020;-59
2022/10/31 01:07:39;;;;;;;168.10;43.20;;;;;;;;;;6268323;22;20027;-59
2022/10/31 01:10:07;;;;;;;177.63;45.50;;;;;;;;;;6269087;22;20760;-59
2022/10/31 01:12:45;;;;;;;232.40;52.17;;;;;;;;;;6268925;22;20034;-60
2022/10/31 01:15:20;;;;;;;202.38;51.17;;;;;;;;;;6271158;22;20051;-59
2022/10/31 01:18:01;;;;;;;198.88;47.63;;;;;;;;;;6239283;23;20030;-60
2022/10/31 01:20:28;;;;;;;198.93;47.65;;;;;;;;;;6240738;23;20035;-59
2022/10/31 01:23:02;;;;;;;224.70;51.63;;;;;;;;;;6239590;23;20567;-59
2022/10/31 01:25:30;;;;;;;151.02;40.15;;;;;;;;;;6239311;23;20102;-59
2022/10/31 01:27:57;;;;;;;155.30;42.17;;;;;;;;;;6240518;23;20662;-59
2022/10/31 01:30:30;;;;;;;137.95;40.58;;;;;;;;;;6240371;23;20055;-59
2022/10/31 01:32:58;;;;;;;155.05;43.40;;;;;;;;;;6238045;23;20103;-60
2022/10/31 01:35:25;;;;;;;175.35;44.90;;;;;;;;;;6240380;23;20021;-59
2022/10/31 01:37:59;;;;;;;159.40;42.97;;;;;;;;;;6241050;23;20103;-53
2022/10/31 01:40:29;;;;;;;155.73;40.42;;;;;;;;;;6239162;23;20423;-59
2022/10/31 01:43:03;;;;;;;155.18;43.35;;;;;;;;;;6233199;23;20024;-59
2022/10/31 01:45:30;;;;;;;131.85;38.47;;;;;;;;;;6237329;23;20016;-59
2022/10/31 01:47:58;;;;;;;141.05;42.28;;;;;;;;;;6236617;23;20030;-60
2022/10/31 01:50:33;;;;;;;150.00;41.88;;;;;;;;;;6238186;23;20103;-59
2022/10/31 01:53:00;;;;;;;145.75;40.90;;;;;;;;;;6235976;23;20016;-60
2022/10/31 01:55:36;;;;;;;155.95;41.22;;;;;;;;;;6236533;23;20055;-59
2022/10/31 01:58:07;;;;;;;160.88;39.50;;;;;;;;;;6236673;23;20052;-67
2022/10/31 02:00:43;;;;;;;146.77;40.45;;;;;;;;;;6239177;23;20103;-67
2022/10/31 02:03:11;;;;;;;132.05;39.05;;;;;;;;;;6239513;23;20470;-66
2022/10/31 02:05:38;;;;;;;151.63;39.85;;;;;;;;;;6240511;23;20035;-66
2022/10/31 02:08:30;;;;;;;144.32;39.47;;;;;;;;;;6239545;23;20024;-67
2022/10/31 02:10:58;;;;;;;146.13;38.70;;;;;;;;;;6239903;23;20055;-66
2022/10/31 02:13:31;;;;;;;111.65;34.30;;;;;;;;;;6238088;23;20354;-51
2022/10/31 02:15:59;;;;;;;153.20;38.17;;;;;;;;;;6247450;22;20481;-59
2022/10/31 02:18:39;;;;;;;121.13;35.25;;;;;;;;;;6268480;22;20029;-59
2022/10/31 02:21:10;;;;;;;109.70;33.80;;;;;;;;;;6269150;22;20357;-59
2022/10/31 02:24:01;;;;;;;121.25;35.10;;;;;;;;;;6269644;22;20273;-59
2022/10/31 02:26:47;;;;;;;113.75;33.85;;;;;;;;;;6269404;22;20110;-58
2022/10/31 02:29:26;;;;;;;122.55;34.17;;;;;;;;;;6270464;22;20024;-58
2022/10/31 02:31:59;;;;;;;107.45;33.03;;;;;;;;;;6268119;22;20030;-58
2022/10/31 02:34:43;;;;;;;119.55;34.95;;;;;;;;;;6269944;22;20483;-49
2022/10/31 02:37:36;;;;;;;116.50;34.28;;;;;;;;;;6269387;22;20023;-52
2022/10/31 02:40:16;;;;;;;120.60;34.22;;;;;;;;;;6269778;22;20026;-52
2022/10/31 02:42:46;;;;;;;119.07;33.28;;;;;;;;;;6269720;22;20477;-48
2022/10/31 02:45:29;;;;;;;125.50;34.65;;;;;;;;;;6269548;22;20107;-49
2022/10/31 02:47:59;;;;;;;97.15;31.05;;;;;;;;;;6270296;22;20024;-50
2022/10/31 02:50:34;;;;;;;101.43;31.27;;;;;;;;;;6271136;22;20042;-50
2022/10/31 02:53:02;;;;;;;97.07;29.95;;;;;;;;;;6268548;22;20131;-51
2022/10/31 02:55:29;;;;;;;109.78;30.88;;;;;;;;;;6270889;22;20026;-65
2022/10/31 02:58:03;;;;;;;99.95;30.10;;;;;;;;;;6269518;22;20548;-67
2022/10/31 03:00:31;;;;;;;;;;;;;;;;;;6270129;22;20488;-66
2022/10/31 03:03:10;;;;;;;95.90;29.35;;;;;;;;;;6268002;22;20003;-66
2022/10/31 03:06:01;;;;;;;85.20;27.38;;;;;;;;;;6269965;22;20098;-66
2022/10/31 03:08:50;;;;;;;103.22;27.40;;;;;;;;;;6268111;22;20103;-65
2022/10/31 03:11:19;;;;;;;104.05;28.80;;;;;;;;;;6269267;22;20464;-58
2022/10/31 03:13:57;;;;;;;96.90;28.58;;;;;;;;;;6268515;22;20019;-54
2022/10/31 03:16:40;;;;;;;99.85;29.00;;;;;;;;;;6267717;22;20418;-49
2022/10/31 03:19:26;;;;;;;91.28;26.88;;;;;;;;;;6270094;22;20026;-47
2022/10/31 03:21:58;;;;;;;88.53;27.80;;;;;;;;;;6270561;22;20077;-51
2022/10/31 03:24:36;;;;;;;92.05;29.02;;;;;;;;;;6267984;22;20026;-52
2022/10/31 03:27:03;;;;;;;89.97;27.10;;;;;;;;;;6269152;22;20071;-53
2022/10/31 03:29:34;;;;;;;95.00;28.40;;;;;;;;;;6269809;22;20098;-66
2022/10/31 03:32:10;;;;;;;81.03;27.48;;;;;;;;;;6244169;22;20095;-60
2022/10/31 03:34:38;;;;;;;86.88;26.45;;;;;;;;;;6269970;22;20023;-60
2022/10/31 03:37:15;;;;;;;93.07;28.50;;;;;;;;;;6270991;22;20020;-61
2022/10/31 03:39:44;;;;;;;143.23;33.10;;;;;;;;;;6268930;22;20111;-61
2022/10/31 03:42:28;;;;;;;106.57;31.05;;;;;;;;;;6269992;22;20070;-61
2022/10/31 03:45:01;;;;;;;117.35;32.47;;;;;;;;;;6266901;22;20473;-61
2022/10/31 03:47:36;;;;;;;130.60;33.75;;;;;;;;;;6270209;22;20030;-61
2022/10/31 03:50:03;;;;;;;96.57;30.02;;;;;;;;;;6268408;22;20020;-59
2022/10/31 03:52:44;;;;;;;95.07;30.90;;;;;;;;;;6268430;22;20030;-61
2022/10/31 03:55:17;;;;;;;135.82;36.20;;;;;;;;;;6271238;22;20126;-61
2022/10/31 03:57:54;;;;;;;103.57;33.63;;;;;;;;;;6271264;22;20030;-61
2022/10/31 04:00:30;;;;;;;94.53;29.92;;;;;;;;;;6245573;22;20481;-61
2022/10/31 04:03:01;;;;;;;125.63;34.85;;;;;;;;;;6270474;22;20034;-61
2022/10/31 04:05:43;;;;;;;138.93;35.25;;;;;;;;;;6271899;22;20439;-61
2022/10/31 04:08:13;;;;;;;108.43;31.23;;;;;;;;;;6271225;22;20023;-49
2022/10/31 04:10:48;;;;;;;148.43;37.08;;;;;;;;;;6271382;22;20338;-51
2022/10/31 04:13:18;;;;;;;149.20;36.75;;;;;;;;;;6271581;22;20097;-62
2022/10/31 04:15:52;;;;;;;134.35;36.80;;;;;;;;;;6270944;22;20360;-62
2022/10/31 04:18:39;;;;;;;122.55;34.15;;;;;;;;;;6240591;23;20477;-62
2022/10/31 04:21:07;;;;;;;141.63;38.38;;;;;;;;;;6241389;23;20078;-62
2022/10/31 04:23:41;;;;;;;169.45;38.97;;;;;;;;;;6240906;23;20098;-62
2022/10/31 04:26:11;;;;;;;114.20;34.35;;;;;;;;;;6241903;23;20030;-62
2022/10/31 04:28:38;;;;;;;120.82;35.30;;;;;;;;;;6241236;23;20024;-59
2022/10/31 04:31:13;;;;;;;141.63;39.45;;;;;;;;;;6241538;23;20063;-50
2022/10/31 04:33:46;;;;;;;163.25;42.80;;;;;;;;;;6240524;23;20035;-52
2022/10/31 04:36:20;;;;;;;162.90;40.67;;;;;;;;;;6239890;23;20020;-54
2022/10/31 04:38:48;;;;;;;143.00;39.22;;;;;;;;;;6239849;23;20030;-50
2022/10/31 04:41:15;;;;;;;158.98;42.35;;;;;;;;;;6241995;23;20373;-52
2022/10/31 04:43:48;;;;;;;202.02;46.10;;;;;;;;;;6240086;23;20098;-54
2022/10/31 04:46:15;;;;;;;186.02;46.38;;;;;;;;;;6241297;23;20327;-53
2022/10/31 04:48:43;;;;;;;161.48;42.50;;;;;;;;;;6241543;23;20588;-53
2022/10/31 04:51:16;;;;;;;146.73;41.42;;;;;;;;;;6241739;23;20016;-61
2022/10/31 04:53:43;;;;;;;154.48;41.40;;;;;;;;;;6239683;23;20026;-61
2022/10/31 04:56:17;;;;;;;120.22;36.30;;;;;;;;;;6215370;23;20023;-61
2022/10/31 04:58:44;;;;;;;140.57;39.17;;;;;;;;;;6240267;23;20032;-60
2022/10/31 05:01:13;;;;;;;145.95;37.80;;;;;;;;;;6239574;23;20102;-60
2022/10/31 05:03:47;;;;;;;163.43;41.03;;;;;;;;;;6238797;23;20082;-61
2022/10/31 05:06:16;;;;;;;158.80;40.88;;;;;;;;;;6240890;23;20091;-59
2022/10/31 05:08:49;;;;;;;194.90;42.92;;;;;;;;;;6241517;23;20027;-60
2022/10/31 05:11:16;;;;;;;183.02;43.25;;;;;;;;;;6240677;23;20067;-61
2022/10/31 05:13:44;;;;;;;175.88;44.13;;;;;;;;;;6239646;23;20050;-61
2022/10/31 05:16:31;;;;;;;176.43;44.60;;;;;;;;;;6243713;22;20020;-60
2022/10/31 05:19:05;;;;;;;123.65;36.75;;;;;;;;;;6270418;22;20023;-60
2022/10/31 05:21:39;;;;;;;145.57;39.35;;;;;;;;;;6270085;22;20072;-60
2022/10/31 05:24:07;;;;;;;191.27;43.25;;;;;;;;;;6270518;22;20054;-59
2022/10/31 05:26:34;;;;;;;118.68;35.47;;;;;;;;;;6270698;22;20016;-64
2022/10/31 05:29:07;;;;;;;160.05;41.67;;;;;;;;;;6268648;22;20020;-66
2022/10/31 05:31:35;;;;;;;126.32;35.05;;;;;;;;;;6271412;22;20019;-65
2022/10/31 05:34:02;;;;;;;119.13;35.85;;;;;;;;;;6270469;22;20023;-66
2022/10/31 05:36:35;;;;;;;143.23;37.22;;;;;;;;;;6271651;22;20461;-66
2022/10/31 05:39:03;;;;;;;124.85;36.25;;;;;;;;;;6271608;22;20028;-66
2022/10/31 05:41:36;;;;;;;113.25;33.95;;;;;;;;;;6269248;22;20429;-66
2022/10/31 05:44:04;;;;;;;98.72;33.38;;;;;;;;;;6269063;22;20055;-58
2022/10/31 05:46:31;;;;;;;99.47;30.35;;;;;;;;;;6269889;22;20045;-60
2022/10/31 05:49:04;;;;;;;103.00;31.58;;;;;;;;;;6268060;22;20091;-60
2022/10/31 05:51:32;;;;;;;94.95;30.50;;;;;;;;;;6269278;22;20026;-60
2022/10/31 05:53:59;;;;;;;102.32;31.60;;;;;;;;;;6267929;22;20103;-60
2022/10/31 05:56:36;;;;;;;84.22;28.92;;;;;;;;;;6270097;22;20054;-61
2022/10/31 05:59:03;;;;;;;96.80;29.85;;;;;;;;;;6269023;22;20029;-60
2022/10/31 06:01:31;;;;;;;99.25;30.52;;;;;;;;;;6270683;22;20038;-60
2022/10/31 06:04:05;;;;;;;97.78;29.98;;;;;;;;;;6270296;22;20028;-59
2022/10/31 06:06:32;;;;;;;85.03;27.65;;;;;;;;;;6269089;22;20022;-63
2022/10/31 06:08:59;;;;;;;89.05;28.35;;;;;;;;;;6267411;22;20024;-63
2022/10/31 06:11:32;;;;;;;97.43;29.27;;;;;;;;;;6270170;22;20546;-63
2022/10/31 06:14:00;;;;;;;74.32;26.38;;;;;;;;;;6268757;22;20326;-63
2022/10/31 06:16:46;;;;;;;80.57;27.55;;;;;;;;;;6268467;22;20019;-64
2022/10/31 06:19:20;;;;;;;74.70;25.35;;;;;;;;;;6270605;22;20027;-63
2022/10/31 06:21:54;;;;;;;84.22;27.38;;;;;;;;;;6270305;22;20095;-61
2022/10/31 06:24:22;;;;;;;85.82;27.67;;;;;;;;;;6271171;22;20019;-54
2022/10/31 06:26:49;;;;;;;76.53;25.05;;;;;;;;;;6270775;22;20481;-66
2022/10/31 06:29:22;;;;;;;93.25;27.88;;;;;;;;;;6270377;22;20028;-66
2022/10/31 06:31:51;;;;;;;89.40;29.58;;;;;;;;;;6270254;22;20020;-67
2022/10/31 06:34:26;;;;;;;83.60;26.10;;;;;;;;;;6269997;22;20126;-66
2022/10/31 06:36:53;;;;;;;84.07;27.80;;;;;;;;;;6271035;22;20094;-66
2022/10/31 06:39:20;;;;;;;94.10;27.27;;;;;;;;;;6270099;22;20051;-66
2022/10/31 06:41:53;;;;;;;80.80;25.40;;;;;;;;;;6269860;22;20357;-60
2022/10/31 06:44:20;;;;;;;77.13;26.35;;;;;;;;;;6271035;22;20102;-59
2022/10/31 06:46:54;;;;;;;92.97;24.33;;;;;;;;;;6271645;22;20042;-59
2022/10/31 06:49:22;;;;;;;78.00;23.90;;;;;;;;;;6268859;22;20024;-60
2022/10/31 06:51:49;;;;;;;90.25;25.10;;;;;;;;;;6269756;22;20020;-58
2022/10/31 06:54:23;;;;;;;87.88;25.40;;;;;;;;;;6269897;22;20019;-59
2022/10/31 06:56:50;;;;;;;101.90;27.02;;;;;;;;;;6269816;22;20020;-59
2022/10/31 06:59:24;;;;;;;92.38;26.50;;;;;;;;;;6270046;22;20041;-58
2022/10/31 07:01:52;;;;;;;101.45;27.52;;;;;;;;;;6269165;22;20418;-60
2022/10/31 07:04:26;;;;;;;109.57;29.77;;;;;;;;;;6269156;22;20098;-64
2022/10/31 07:06:53;;;;;;;100.10;28.23;;;;;;;;;;6268951;22;20082;-63
2022/10/31 07:09:27;;;;;;;84.03;27.90;;;;;;;;;;6269988;22;20099;-63
2022/10/31 07:11:54;;;;;;;102.72;27.90;;;;;;;;;;6270520;22;20020;-64
2022/10/31 07:14:21;;;;;;;94.63;28.60;;;;;;;;;;6269616;22;20103;-64
2022/10/31 07:17:07;;;;;;;84.40;26.38;;;;;;;;;;6269960;22;20102;-64
2022/10/31 07:19:41;;;;;;;75.88;24.50;;;;;;;;;;6270197;22;20469;-59
2022/10/31 07:22:15;;;;;;;75.75;25.95;;;;;;;;;;6269049;22;20055;-59
2022/10/31 07:24:42;;;;;;;73.53;24.00;;;;;;;;;;6269606;22;20103;-59
2022/10/31 07:27:17;;;;;;;87.95;24.35;;;;;;;;;;6268845;22;20024;-60
2022/10/31 07:29:44;;;;;;;66.03;22.10;;;;;;;;;;6271372;22;20527;-59
2022/10/31 07:32:11;;;;;;;70.20;21.60;;;;;;;;;;6272497;22;20102;-59
2022/10/31 07:34:44;;;;;;;74.30;22.08;;;;;;;;;;6271919;22;20095;-60
2022/10/31 07:37:13;;;;;;;67.72;21.73;;;;;;;;;;6271657;22;20095;-60
2022/10/31 07:39:47;;;;;;;62.47;20.83;;;;;;;;;;6272107;22;20023;-58
2022/10/31 07:42:14;;;;;;;65.10;21.63;;;;;;;;;;6272057;22;20022;-58
2022/10/31 07:44:42;;;;;;;49.88;17.45;;;;;;;;;;6270858;22;20473;-58
2022/10/31 07:47:21;;;;;;;61.00;18.75;;;;;;;;;;6272189;22;20020;-58
2022/10/31 07:49:48;;;;;;;44.03;17.25;;;;;;;;;;6271968;22;20024;-58
2022/10/31 07:52:21;;;;;;;42.53;15.88;;;;;;;;;;6271371;22;20026;-58
2022/10/31 07:54:48;;;;;;;44.67;15.77;;;;;;;;;;6270972;22;20024;-58
2022/10/31 07:57:22;;;;;;;47.10;15.88;;;;;;;;;;6271260;22;20043;-66
2022/10/31 07:59:51;;;;;;;39.88;14.88;;;;;;;;;;6271889;22;20024;-54
2022/10/31 08:02:18;;;;;;;43.38;16.15;;;;;;;;;;6269131;22;20022;-54
2022/10/31 08:04:53;;;;;;;41.08;15.57;;;;;;;;;;6271166;22;20090;-56
2022/10/31 08:07:26;;;;;;;34.17;14.38;;;;;;;;;;6272970;22;20103;-52
2022/10/31 08:10:00;;;;;;;36.22;15.55;;;;;;;;;;6271461;22;20020;-56
2022/10/31 08:12:27;;;;;;;41.80;14.80;;;;;;;;;;6271049;22;20020;-56
2022/10/31 08:14:54;;;;;;;35.22;15.15;;;;;;;;;;6270580;22;20019;-54
2022/10/31 08:17:37;;;;;;;37.65;14.13;;;;;;;;;;6270672;22;20416;-58
2022/10/31 08:20:05;;;;;;;40.10;15.23;;;;;;;;;;6270645;22;20023;-52
2022/10/31 08:22:38;;;;;;;42.72;15.65;;;;;;;;;;6271514;22;20321;-50
2022/10/31 08:25:09;;;;;;;39.00;14.43;;;;;;;;;;6272490;22;20415;-50
2022/10/31 08:27:37;;;;;;;32.67;12.93;;;;;;;;;;6270258;22;20019;-51
2022/10/31 08:30:11;;;;;;;38.30;15.13;;;;;;;;;;6269932;22;20768;-50
2022/10/31 08:32:38;;;;;;;33.92;14.63;;;;;;;;;;6268905;22;20023;-49
2022/10/31 08:35:05;;;;;;;40.28;15.85;;;;;;;;;;6270381;22;20483;-66
2022/10/31 08:37:38;;;;;;;41.42;14.20;;;;;;;;;;6272076;22;20609;-59
2022/10/31 08:40:06;;;;;;;42.20;13.68;;;;;;;;;;6271341;22;20030;-58
2022/10/31 08:42:33;;;;;;;39.58;14.25;;;;;;;;;;6270753;22;20030;-58
2022/10/31 08:45:08;;;;;;;37.80;13.07;;;;;;;;;;6271810;22;20386;-59
2022/10/31 08:47:35;;;;;;;34.28;12.40;;;;;;;;;;6272711;22;20023;-57
2022/10/31 08:50:09;;;;;;;34.45;11.93;;;;;;;;;;6270554;22;20024;-58
2022/10/31 08:52:36;;;;;;;23.42;11.35;;;;;;;;;;6270362;22;20020;-58
2022/10/31 08:55:23;;;;;;;26.98;8.77;;;;;;;;;;6271678;22;20019;-60
2022/10/31 08:57:57;;;;;;;19.90;8.05;;;;;;;;;;6270133;22;20331;-59
2022/10/31 09:00:25;;;;;;;28.52;8.32;;;;;;;;;;6271778;22;20023;-59
2022/10/31 09:03:04;;;;;;;21.40;8.13;;;;;;;;;;6268040;22;20062;-60
2022/10/31 09:05:32;;;;;;;25.25;8.02;;;;;;;;;;6270594;22;20409;-59
2022/10/31 09:08:00;;;;;;;18.63;7.05;;;;;;;;;;6270931;22;20024;-60
2022/10/31 09:10:41;;;;;;;22.83;7.65;;;;;;;;;;6270384;22;20392;-60
2022/10/31 09:13:10;;;;;;;22.13;6.63;;;;;;;;;;6271570;22;20038;-60
2022/10/31 09:15:45;;;;;;;20.17;6.75;;;;;;;;;;6271299;22;20034;-52
2022/10/31 09:18:19;;;;;;;25.92;7.32;;;;;;;;;;6270794;22;20094;-59
2022/10/31 09:21:00;;;;;;;22.67;7.78;;;;;;;;;;6270369;22;20034;-59
2022/10/31 09:23:34;;;;;;;24.42;6.70;;;;;;;;;;6271699;22;20022;-60
2022/10/31 09:26:08;;;;;;;22.80;6.78;;;;;;;;;;6270773;22;20024;-60
2022/10/31 09:28:36;;;;;;;17.38;6.72;;;;;;;;;;6271549;22;20016;-59
2022/10/31 09:31:03;;;;;;;20.45;6.93;;;;;;;;;;6269961;22;20094;-60
2022/10/31 09:33:37;;;;;;;16.35;6.03;;;;;;;;;;6270093;22;20016;-66
2022/10/31 09:36:04;;;;;;;25.40;6.28;;;;;;;;;;6271285;22;20102;-49
2022/10/31 09:38:31;;;;;;;23.30;6.30;;;;;;;;;;6269374;22;20099;-53
2022/10/31 09:41:14;;;;;;;18.67;6.10;;;;;;;;;;6269845;22;20028;-53
2022/10/31 09:43:44;;;;;;;21.73;6.60;;;;;;;;;;6270193;22;20107;-48
2022/10/31 09:46:30;;;;;;;26.25;6.47;;;;;;;;;;6264845;22;20111;-62
2022/10/31 09:49:25;;;;;;;20.23;7.40;;;;;;;;;;6269297;22;20026;-64
2022/10/31 09:52:10;;;;;;;25.33;7.40;;;;;;;;;;6269103;22;20020;-64
2022/10/31 09:55:11;;;;;;;17.58;5.88;;;;;;;;;;6267977;22;20023;-64
2022/10/31 09:57:46;;;;;;;15.82;6.35;;;;;;;;;;6250440;22;20015;-64
2022/10/31 10:00:18;;;;;;;22.88;6.95;;;;;;;;;;6269570;22;20026;-64
2022/10/31 10:03:02;;;;;;;23.33;6.40;;;;;;;;;;6268948;22;20028;-55
2022/10/31 10:05:42;;;;;;;24.48;6.47;;;;;;;;;;6269926;22;20077;-64
2022/10/31 10:08:24;;;;;;;17.50;6.78;;;;;;;;;;6270760;22;20094;-64
2022/10/31 10:10:54;;;;;;;18.80;6.55;;;;;;;;;;6268633;22;20027;-64
2022/10/31 10:13:37;;;;;;;23.90;7.05;;;;;;;;;;6269794;22;20026;-63
2022/10/31 10:16:09;;;;;;;18.48;6.60;;;;;;;;;;6268336;22;20491;-64
2022/10/31 16:56:58;;;;;;;33.88;7.85;;;;;;;;;;6293881;22;20046;-55
2022/10/31 16:59:33;;;;;;;40.83;8.75;;;;;;;;;;6297343;22;20492;-53
2022/10/31 17:02:01;;;;;;;31.25;9.07;;;;;;;;;;6297077;22;20025;-48
2022/10/31 17:04:29;;;;;;;29.95;8.65;;;;;;;;;;6295355;22;20487;-48
2022/10/31 17:07:08;;;;;;;32.97;8.43;;;;;;;;;;6297650;22;20023;-51
2022/10/31 17:09:35;;;;;;;32.75;8.13;;;;;;;;;;6297149;22;20447;-51
2022/10/31 17:12:14;;;;;;;32.30;8.90;;;;;;;;;;6295800;22;20590;-65
2022/10/31 17:14:42;;;;;;;39.83;9.85;;;;;;;;;;6296957;22;20030;-59
2022/10/31 17:17:16;;;;;;;39.13;9.77;;;;;;;;;;6297451;22;20088;-59
2022/10/31 17:19:43;;;;;;;36.25;10.10;;;;;;;;;;6290918;22;20610;-62
2022/10/31 17:22:14;;;;;;;35.13;10.63;;;;;;;;;;6293843;22;20033;-61
2022/10/31 17:24:48;;;;;;;38.95;10.85;;;;;;;;;;6297396;22;20023;-61
2022/10/31 17:27:15;;;;;;;35.22;11.02;;;;;;;;;;6296535;22;20023;-61
2022/10/31 17:29:42;;;;;;;36.63;10.40;;;;;;;;;;6296956;22;20102;-61
2022/10/31 17:32:17;;;;;;;40.05;10.63;;;;;;;;;;6296452;22;20053;-53
2022/10/31 17:34:44;;;;;;;39.50;11.20;;;;;;;;;;6297495;22;20300;-65
2022/10/31 17:37:11;;;;;;;37.35;10.60;;;;;;;;;;6296914;22;20804;-65
2022/10/31 17:39:45;;;;;;;51.50;11.52;;;;;;;;;;6296064;22;20023;-65
2022/10/31 17:42:12;;;;;;;47.47;12.15;;;;;;;;;;6294140;22;20028;-65
2022/10/31 17:44:46;;;;;;;41.08;11.95;;;;;;;;;;6295387;22;20023;-65
2022/10/31 17:47:13;;;;;;;43.70;13.25;;;;;;;;;;6295660;22;20023;-65
2022/10/31 17:49:41;;;;;;;76.03;14.70;;;;;;;;;;6295360;22;20033;-65
2022/10/31 17:52:15;;;;;;;52.30;16.42;;;;;;;;;;6296407;22;20351;-49
2022/10/31 17:54:42;;;;;;;64.45;15.80;;;;;;;;;;6294901;22;20606;-67
2022/10/31 17:57:22;;;;;;;52.30;15.70;;;;;;;;;;6295174;22;20033;-66
2022/10/31 17:59:50;;;;;;;60.58;16.17;;;;;;;;;;6296763;22;20019;-66
2022/10/31 18:02:24;;;;;;;62.00;17.35;;;;;;;;;;6295302;22;20025;-67
2022/10/31 18:04:51;;;;;;;;;;;;;;;;;;6295637;22;20508;-66
2022/10/31 18:07:19;;;;;;;72.97;19.60;;;;;;;;;;6296145;22;20569;-67
2022/10/31 18:09:53;;;;;;;57.90;17.63;;;;;;;;;;6295445;22;20088;-49
2022/10/31 18:12:20;;;;;;;57.13;18.50;;;;;;;;;;6294724;22;20029;-61
2022/10/31 18:14:54;;;;;;;68.35;17.30;;;;;;;;;;6295911;22;20543;-61
2022/10/31 18:17:27;;;;;;;59.22;18.98;;;;;;;;;;6293447;22;20023;-61
2022/10/31 18:20:07;;;;;;;69.82;18.77;;;;;;;;;;6294804;22;20020;-61
2022/10/31 18:22:40;;;;;;;66.72;19.20;;;;;;;;;;6297087;22;20022;-61
2022/10/31 18:25:15;;;;;;;64.80;18.60;;;;;;;;;;6295176;22;20552;-61
2022/10/31 18:27:42;;;;;;;;;;;;;;;;;;6295280;22;20027;-67
2022/10/31 18:30:09;;;;;;;66.65;18.63;;;;;;;;;;6296192;22;20024;-60
2022/10/31 18:32:44;;;;;;;87.18;22.83;;;;;;;;;;6291899;22;20025;-60
2022/10/31 18:35:11;;;;;;;68.97;22.17;;;;;;;;;;6293429;22;20019;-61
2022/10/31 18:37:45;;;;;;;74.30;23.60;;;;;;;;;;6290899;22;20023;-60
2022/10/31 18:40:12;;;;;;;88.00;22.15;;;;;;;;;;6292208;22;20035;-58
2022/10/31 18:42:40;;;;;;;80.28;21.95;;;;;;;;;;6294168;22;20019;-59
2022/10/31 18:45:14;;;;;;;72.57;20.92;;;;;;;;;;6296771;22;20550;-59
2022/10/31 18:47:59;;;;;;;74.70;22.83;;;;;;;;;;6296494;22;20049;-63
2022/10/31 18:50:34;;;;;;;84.40;22.95;;;;;;;;;;6295430;22;20026;-63
2022/10/31 18:53:01;;;;;;;79.03;23.98;;;;;;;;;;6294668;22;20019;-64
2022/10/31 18:55:29;;;;;;;83.63;22.73;;;;;;;;;;6294942;22;20164;-63
2022/10/31 18:58:09;;;;;;;76.60;24.25;;;;;;;;;;6294416;22;20023;-63
2022/10/31 19:00:44;;;;;;;77.38;25.02;;;;;;;;;;6296807;22;20023;-63
2022/10/31 19:03:18;;;;;;;96.53;24.92;;;;;;;;;;6292169;22;20020;-63
2022/10/31 19:05:55;;;;;;;110.00;28.40;;;;;;;;;;6292979;22;20475;-59
2022/10/31 19:08:29;;;;;;;101.87;27.27;;;;;;;;;;6270808;22;20102;-62
2022/10/31 19:11:02;;;;;;;103.38;27.75;;;;;;;;;;6296617;22;20029;-59
2022/10/31 19:13:36;;;;;;;99.75;26.63;;;;;;;;;;6296123;22;20026;-59
2022/10/31 19:16:13;;;;;;;107.95;27.60;;;;;;;;;;6295315;22;20072;-59
2022/10/31 19:18:47;;;;;;;116.30;28.92;;;;;;;;;;6292734;22;20034;-59
2022/10/31 19:21:15;;;;;;;89.07;24.30;;;;;;;;;;6296524;22;20102;-59
2022/10/31 19:23:43;;;;;;;89.15;26.92;;;;;;;;;;6295102;22;20086;-60
2022/10/31 19:26:17;;;;;;;85.22;27.13;;;;;;;;;;6296305;22;20045;-65
2022/10/31 19:28:44;;;;;;;115.38;30.40;;;;;;;;;;6298418;22;20098;-49
2022/10/31 19:31:18;;;;;;;110.10;30.42;;;;;;;;;;6297793;22;20785;-52
2022/10/31 19:33:45;;;;;;;;;;;;;;;;;;6295144;22;20019;-49
2022/10/31 19:36:13;;;;;;;127.65;29.48;;;;;;;;;;6296294;22;20370;-53
2022/10/31 19:38:49;;;;;;;125.15;30.73;;;;;;;;;;6296508;22;20360;-54
2022/10/31 19:41:18;;;;;;;99.82;27.02;;;;;;;;;;6295320;22;20027;-55
2022/10/31 19:43:52;;;;;;;126.80;30.92;;;;;;;;;;6270732;22;20023;-53
2022/10/31 19:46:20;;;;;;;125.63;31.70;;;;;;;;;;6297004;22;20532;-65
2022/10/31 19:49:08;;;;;;;110.17;30.97;;;;;;;;;;6296848;22;20535;-65
2022/10/31 19:51:43;;;;;;;102.50;29.77;;;;;;;;;;6298118;22;20035;-66
2022/10/31 19:54:11;;;;;;;89.97;27.85;;;;;;;;;;6292900;22;20458;-65
2022/10/31 19:56:38;;;;;;;112.57;29.73;;;;;;;;;;6295775;22;20026;-65
2022/10/31 19:59:18;;;;;;;125.80;30.95;;;;;;;;;;6265656;22;20021;-65
2022/10/31 20:01:46;;;;;;;121.45;30.17;;;;;;;;;;6264989;22;20482;-66
2022/10/31 20:04:20;;;;;;;122.93;31.75;;;;;;;;;;6264742;22;20516;-59
2022/10/31 20:06:47;;;;;;;106.88;32.20;;;;;;;;;;6265641;22;20472;-58
2022/10/31 20:09:21;;;;;;;99.25;28.33;;;;;;;;;;6267236;22;20020;-58
2022/10/31 20:11:48;;;;;;;125.35;32.17;;;;;;;;;;6265993;22;20030;-58
2022/10/31 20:14:16;;;;;;;121.45;29.48;;;;;;;;;;6267904;22;20050;-58
2022/10/31 20:16:50;;;;;;;127.90;31.23;;;;;;;;;;6266333;22;20357;-57
2022/10/31 20:19:17;;;;;;;128.25;31.95;;;;;;;;;;6264546;22;20028;-58
2022/10/31 20:21:51;;;;;;;115.13;29.33;;;;;;;;;;6267701;22;20031;-58
2022/10/31 20:24:18;;;;;;;105.15;29.63;;;;;;;;;;6266435;22;20094;-59
2022/10/31 20:26:45;;;;;;;122.10;29.98;;;;;;;;;;6267165;22;20023;-49
2022/10/31 20:29:19;;;;;;;94.40;27.45;;;;;;;;;;6267030;22;20103;-55
2022/10/31 20:31:46;;;;;;;85.38;25.95;;;;;;;;;;6264594;22;20024;-53
2022/10/31 20:34:24;;;;;;;117.35;28.92;;;;;;;;;;6265319;22;20020;-53
2022/10/31 20:36:51;;;;;;;94.95;27.40;;;;;;;;;;6265600;22;20500;-53
2022/10/31 20:39:18;;;;;;;109.07;30.20;;;;;;;;;;6265038;22;20061;-53
2022/10/31 20:41:52;;;;;;;107.00;27.95;;;;;;;;;;6265705;22;20034;-60
2022/10/31 20:44:19;;;;;;;110.10;29.50;;;;;;;;;;6266895;22;20043;-64
2022/10/31 20:46:54;;;;;;;95.93;26.63;;;;;;;;;;6265119;22;20473;-63
2022/10/31 20:49:21;;;;;;;80.28;23.70;;;;;;;;;;6263786;22;20023;-63
2022/10/31 20:51:55;;;;;;;69.28;22.15;;;;;;;;;;6265485;22;20023;-63
2022/10/31 20:54:22;;;;;;;62.92;20.63;;;;;;;;;;6264785;22;20020;-64
2022/10/31 20:56:50;;;;;;;58.92;20.45;;;;;;;;;;6267086;22;20023;-64
2022/10/31 20:59:30;;;;;;;57.53;19.88;;;;;;;;;;6299075;22;20023;-64
2022/10/31 21:01:58;;;;;;;56.17;19.13;;;;;;;;;;6296604;22;20360;-51
2022/10/31 21:04:45;;;;;;;48.40;18.58;;;;;;;;;;6297547;22;20023;-59
2022/10/31 21:07:12;;;;;;;53.45;17.48;;;;;;;;;;6297354;22;20467;-60
2022/10/31 21:09:47;;;;;;;51.13;17.52;;;;;;;;;;6297893;22;20023;-60
2022/10/31 21:12:14;;;;;;;53.47;17.40;;;;;;;;;;6298407;22;20033;-60
2022/10/31 21:14:41;;;;;;;51.08;17.83;;;;;;;;;;6296590;22;20098;-63
2022/10/31 21:17:16;;;;;;;55.08;16.65;;;;;;;;;;6297761;22;20051;-59
2022/10/31 21:19:43;;;;;;;42.55;16.55;;;;;;;;;;6294455;22;20268;-65
2022/10/31 21:22:17;;;;;;;45.28;16.77;;;;;;;;;;6295930;22;20057;-66